Malaga Aeropuerto en Andalucia

latitud = 36° 39' 58''N | longitud = 004° 28' 56''W
5 metros sobre el nivel del mar |

Fecha, hora, temperatura, viento dirección y velocidad, humedad y presión.

  • 22-11-2017 09:00:00 | 6.40°C | Oeste |13.00 km/h | 77.00% | 1017.50 hPa
  • 22-11-2017 08:00:00 | 6.40°C | Oeste |14.00 km/h | 77.00% | 1016.90 hPa
  • 22-11-2017 07:00:00 | 5.70°C | Oeste |17.00 km/h | 80.00% | 1016.90 hPa
  • 22-11-2017 06:00:00 | 5.80°C | Oeste |18.00 km/h | 81.00% | 1016.90 hPa
  • 22-11-2017 05:00:00 | 7.10°C | Oeste |18.00 km/h | 78.00% | 1017.20 hPa
  • 22-11-2017 04:00:00 | 7.10°C | Oeste |19.00 km/h | 79.00% | 1017.60 hPa
  • 22-11-2017 03:00:00 | 7.00°C | Oeste |15.00 km/h | 82.00% | 1018.20 hPa
  • 22-11-2017 02:00:00 | 7.80°C | Oeste |17.00 km/h | 82.00% | 1018.70 hPa
  • 22-11-2017 01:00:00 | 8.70°C | Oeste |12.00 km/h | 81.00% | 1019.40 hPa
  • 22-11-2017 00:00:00 | 9.80°C | Oeste |13.00 km/h | 80.00% | 1019.40 hPa
  • 21-11-2017 23:00:00 | 10.60°C | Oeste |15.00 km/h | 81.00% | 1019.50 hPa
  • 21-11-2017 22:00:00 | 11.30°C | Oeste |13.00 km/h | 74.00% | 1019.60 hPa
  • 21-11-2017 21:00:00 | 12.00°C | Noroeste |3.00 km/h | 79.00% | 1019.60 hPa
  • 21-11-2017 20:00:00 | 12.80°C | Calma |0.00 km/h | 87.00% | 1019.70 hPa
  • 21-11-2017 19:00:00 | 15.00°C | Calma |0.00 km/h | 82.00% | 1019.40 hPa
  • 21-11-2017 18:00:00 | 16.70°C | Sudeste |8.00 km/h | 75.00% | 1019.00 hPa
  • 21-11-2017 17:00:00 | 18.90°C | Sudeste |14.00 km/h | 68.00% | 1019.10 hPa
  • 21-11-2017 16:00:00 | 19.30°C | Sudeste |14.00 km/h | 67.00% | 1019.10 hPa
  • 21-11-2017 15:00:00 | 19.60°C | Sudeste |13.00 km/h | 63.00% | 1019.50 hPa
  • 21-11-2017 14:00:00 | 20.10°C | Sudeste |13.00 km/h | 55.00% | 1020.10 hPa
  • 21-11-2017 13:00:00 | 20.10°C | Sudeste |11.00 km/h | 55.00% | 1020.90 hPa
  • 21-11-2017 12:00:00 | 19.00°C | Este |5.00 km/h | 54.00% | 1021.90 hPa
  • 21-11-2017 11:00:00 | 14.20°C | Oeste |8.00 km/h | 51.00% | 1022.40 hPa
  • 21-11-2017 10:00:00 | 9.60°C | Oeste |14.00 km/h | 68.00% | 1022.50 hPa
    • Datos gráficos mensuales de Malaga Aeropuerto: